Flight Track Log - Related Links

Times and Time Zones

All times are in EDT time to prevent confusion due to time zone crossing. See the N10CW flight status page for this flight to view local times or setup timezone preferences in your user account.

Time Position Orientation Groundspeed Altitude Reporting Facility
EDT Latitude Longitude Course Direction KTS MPH feet Rate Location/Type
Fri 10:41:37 AM 41.5000 -87.5500 246° West 137 158 2,400  Level Chicago TRACON
Fri 10:42:37 AM 41.4833 -87.6000 246° West 155 178 3,000 387 Climbing Chicago TRACON
Fri 10:43:10 AM 41.4792 -87.6236 257° West 143 165 3,000  Level Chicago Center
Fri 10:44:12 AM 41.4839 -87.6867 276° West 161 185 3,000  Level Chicago Center
Fri 10:45:14 AM 41.4911 -87.7619 277° West 169 194 3,000 480 Level Chicago Center
Fri 10:46:17 AM 41.4958 -87.8250 276° West 172 198 4,000 480 Climbing Chicago Center
Fri 10:47:19 AM 41.5058 -87.8836 283° West 169 194 4,000  Level Chicago Center
Fri 10:48:21 AM 41.5219 -87.9444 289° West 174 200 4,000  Level Chicago Center
Fri 10:49:23 AM 41.5433 -88.0153 292° West 175 201 4,000  Level Chicago Center
Fri 10:50:25 AM 41.5594 -88.0758 290° West 175 201 4,000  Level Chicago Center
Fri 10:51:27 AM 41.5761 -88.1369 290° West 176 203 4,000  Level Chicago Center
Fri 10:52:29 AM 41.5917 -88.1994 288° West 178 205 4,000  Level Chicago Center
Fri 10:53:31 AM 41.6069 -88.2625 288° West 180 207 4,000 968 Level Chicago Center
Fri 10:54:33 AM 41.6236 -88.3339 287° West 170 196 6,000 960 Climbing Chicago Center
Fri 10:55:36 AM 41.6536 -88.3814 310° West 176 203 6,000  Level Chicago Center
Fri 10:56:38 AM 41.6872 -88.4308 312° West 181 208 6,000 435 Level Chicago Center
Fri 10:57:40 AM 41.7236 -88.4819 314° West 189 217 6,900 1,452 Climbing Chicago Center
Fri 10:58:42 AM 41.7517 -88.5186 316° Northwest 149 171 9,000 1,500 Climbing Chicago Center
Fri 10:59:44 AM 41.7653 -88.5744 288° West 130 150 10,000 532 Climbing Chicago Center
Fri 11:00:46 AM 41.7806 -88.6422 287° West 179 206 10,100 484 Climbing Chicago Center
Fri 11:01:48 AM 41.7947 -88.7033 287° West 178 205 11,000 435 Climbing Chicago Center
Fri 11:02:50 AM 41.8100 -88.7686 287° West 180 207 11,000 145 Level Chicago Center
Fri 11:03:52 AM 41.8275 -88.8386 289° West 195 224 11,300 528 Climbing Chicago Center
Fri 11:04:55 AM 41.8653 -88.9086 306° West 195 224 12,100 1,584 Climbing Chicago Center
Fri 11:05:57 AM 41.8750 -88.9672 283° West 166 191 14,600 1,887 Climbing Chicago Center
Fri 11:06:59 AM 41.8731 -89.0114 267° West 128 147 16,000 1,355 Climbing Chicago Center
Fri 11:08:01 AM 41.8722 -89.0603 269° West 131 151 17,400 1,306 Climbing Chicago Center
Fri 11:09:03 AM 41.8731 -89.1081 271° West 130 150 18,700 1,452 Climbing Chicago Center
Fri 11:10:05 AM 41.8717 -89.1692 268° West 137 158 20,400 1,355 Climbing Chicago Center
Fri 11:11:07 AM 41.8711 -89.2158 269° West 129 148 21,500 1,016 Climbing Chicago Center
Fri 11:12:09 AM 41.8744 -89.2633 275° West 129 148 22,500 968 Climbing Chicago Center
Fri 11:13:11 AM 41.8742 -89.3142 270° West 136 157 23,500 919 Climbing Chicago Center
Fri 11:14:13 AM 41.8775 -89.3631 275° West 134 154 24,400 960 Climbing Chicago Center
Fri 11:15:16 AM 41.8789 -89.4233 272° West 135 155 25,500 864 Climbing Chicago Center
Fri 11:16:18 AM 41.8797 -89.4747 271° West 140 161 26,200 677 Climbing Chicago Center
Fri 11:17:20 AM 41.8817 -89.5283 273° West 144 166 26,900 726 Climbing Chicago Center
Fri 11:18:22 AM 41.8825 -89.5833 271° West 148 170 27,700 726 Climbing Chicago Center
Fri 11:19:24 AM 41.8842 -89.6389 272° West 149 171 28,400 774 Climbing Chicago Center
Fri 11:20:26 AM 41.8872 -89.7017 274° West 144 166 29,300 774 Climbing Chicago Center
Fri 11:21:28 AM 41.8881 -89.7528 271° West 137 158 30,000 339 Climbing Chicago Center
Fri 11:22:30 AM 41.8894 -89.8083 272° West 147 169 30,000  Level Chicago Center
Fri 11:23:32 AM 41.8911 -89.8783 272° West 185 213 30,000  Level Chicago Center
Fri 11:24:35 AM 41.8967 -89.9656 275° West 206 237 30,000  Level Chicago Center
Fri 11:25:37 AM 41.8978 -90.0481 271° West 221 254 30,000  Level Chicago Center
Fri 11:26:39 AM 41.9003 -90.1325 272° West 227 261 30,000  Level Chicago Center
Fri 11:27:41 AM 41.9025 -90.2197 272° West 235 270 30,000  Level Chicago Center
Fri 11:28:43 AM 41.9042 -90.3050 272° West 232 267 30,000  Level Chicago Center
Fri 11:29:45 AM 41.9072 -90.4081 272° West 232 267 30,000  Level Chicago Center
Fri 11:30:47 AM 41.9086 -90.4939 271° West 232 267 30,000  Level Chicago Center
Fri 11:31:49 AM 41.9114 -90.5794 273° West 232 267 30,000  Level Chicago Center
Fri 11:32:51 AM 41.9119 -90.6686 271° West 238 274 30,000  Level Chicago Center
Fri 11:33:54 AM 41.9147 -90.7567 272° West 239 275 30,000  Level Chicago Center
Fri 11:34:56 AM 41.9156 -90.8617 271° West 236 272 30,000  Level Chicago Center
Fri 11:35:58 AM 41.9178 -90.9503 272° West 239 275 30,000  Level Chicago Center
Fri 11:37:00 AM 41.9197 -91.0386 272° West 238 274 30,000  Level Chicago Center
Fri 11:38:02 AM 41.9217 -91.1272 272° West 238 274 30,000  Level Chicago Center
Fri 11:39:04 AM 41.9222 -91.2178 271° West 241 277 30,000  Level Chicago Center
Fri 11:40:06 AM 41.9244 -91.3256 272° West 242 278 30,000  Level Chicago Center
Fri 11:41:08 AM 41.9250 -91.4161 271° West 243 280 30,000  Level Chicago Center
Fri 11:42:10 AM 41.9272 -91.5036 272° West 238 274 30,000  Level Chicago Center
Fri 11:43:12 AM 41.9281 -91.5936 271° West 240 276 30,000  Level Chicago Center
Fri 11:44:15 AM 41.9300 -91.6839 272° West 243 280 30,000  Level Chicago Center
Fri 11:45:17 AM 41.9308 -91.7922 271° West 242 278 30,000  Level Chicago Center
Fri 11:46:19 AM 41.9314 -91.8842 270° West 246 283 30,000  Level Chicago Center
Fri 11:47:21 AM 41.9325 -91.9739 271° West 244 281 30,000  Level Chicago Center
Fri 11:48:23 AM 41.9339 -92.0650 271° West 245 282 30,000  Level Chicago Center
Fri 11:49:25 AM 41.9344 -92.1564 270° West 246 283 30,000  Level Chicago Center
Fri 11:50:27 AM 41.9353 -92.2681 271° West 249 287 30,000  Level Chicago Center
Fri 11:51:29 AM 41.9364 -92.3592 271° West 247 284 30,000  Level Chicago Center
Fri 11:52:31 AM 41.9367 -92.4508 270° West 248 285 30,000  Level Chicago Center
Fri 11:53:33 AM 41.9381 -92.5428 271° West 248 285 30,000  Level Chicago Center
Fri 11:54:36 AM 41.9375 -92.6339 270° West 247 284 30,000  Level Chicago Center
Fri 11:55:38 AM 41.9383 -92.7439 271° West 247 284 30,000  Level Chicago Center
Fri 11:56:40 AM 41.9386 -92.8372 270° West 250 288 30,000  Level Chicago Center
Fri 11:57:42 AM 41.9394 -92.9278 271° West 247 284 30,000  Level Minneapolis Center
Fri 11:58:44 AM 41.9389 -93.0214 270° West 250 288 30,000  Level Minneapolis Center
Fri 11:59:46 AM 41.9386 -93.1136 270° West 251 289 30,000  Level Minneapolis Center
Fri 12:00:48 PM 41.9386 -93.2264 270° West 254 292 30,000  Level Minneapolis Center
Fri 12:01:51 PM 41.9386 -93.3181 270° West 251 289 30,000  Level Minneapolis Center
Fri 12:02:53 PM 41.9389 -93.4117 270° West 252 290 30,000  Level Minneapolis Center
Fri 12:03:55 PM 41.9381 -93.5056 269° West 253 291 30,000  Level Minneapolis Center
Fri 12:04:57 PM 41.9381 -93.6158 270° West 251 289 30,000  Level Minneapolis Center
Fri 12:05:59 PM 41.9378 -93.7106 270° West 255 293 30,000  Level Minneapolis Center
Fri 12:07:01 PM 41.9381 -93.8061 270° West 256 295 30,000  Level Minneapolis Center
Fri 12:08:03 PM 41.9375 -93.9111 270° West 254 292 30,000  Level Minneapolis Center
Fri 12:09:05 PM 41.9361 -94.0044 269° West 251 289 30,000  Level Minneapolis Center
Fri 12:10:07 PM 41.9344 -94.0964 269° West 247 284 30,000  Level Minneapolis Center
Fri 12:11:09 PM 41.9339 -94.1861 270° West 241 277 30,000  Level Minneapolis Center
Fri 12:12:11 PM 41.9347 -94.2778 271° West 243 280 30,000  Level Minneapolis Center
Fri 12:13:13 PM 41.9325 -94.3703 268° West 246 283 30,000  Level Minneapolis Center
Fri 12:14:15 PM 41.9317 -94.4800 269° West 245 282 30,000  Level Minneapolis Center
Fri 12:15:18 PM 41.9303 -94.5733 269° West 247 284 30,000  Level Minneapolis Center
Fri 12:16:20 PM 41.9300 -94.6661 270° West 248 285 30,000  Level Minneapolis Center
Fri 12:17:22 PM 41.9294 -94.7589 270° West 247 284 30,000  Level Minneapolis Center
Fri 12:18:24 PM 41.9278 -94.8508 269° West 247 284 30,000  Level Minneapolis Center
Fri 12:19:26 PM 41.9261 -94.9608 269° West 246 283 30,000  Level Minneapolis Center
Fri 12:20:28 PM 41.9250 -95.0519 269° West 245 282 30,000  Level Minneapolis Center
Fri 12:21:30 PM 41.9228 -95.1433 268° West 246 283 30,000  Level Minneapolis Center
Fri 12:22:32 PM 41.9214 -95.2364 269° West 250 288 30,000  Level Minneapolis Center
Fri 12:23:34 PM 41.9189 -95.3300 268° West 251 289 30,000  Level Minneapolis Center
Fri 12:24:36 PM 41.9181 -95.4233 269° West 251 289 30,000  Level Minneapolis Center
Fri 12:25:38 PM 41.9161 -95.5372 269° West 254 292 30,000  Level Minneapolis Center
Fri 12:26:40 PM 41.9142 -95.6331 268° West 257 296 30,000  Level Minneapolis Center
Fri 12:27:43 PM 41.9108 -95.7261 267° West 253 291 30,000  Level Minneapolis Center
Fri 12:28:45 PM 41.9083 -95.8211 268° West 254 292 30,000  Level Minneapolis Center
Fri 12:29:47 PM 41.9058 -95.9142 268° West 253 291 30,000  Level Minneapolis Center
Fri 12:30:49 PM 41.9036 -96.0094 268° West 255 293 30,000  Level Minneapolis Center
Fri 12:31:51 PM 41.9008 -96.1214 268° West 252 290 30,000  Level Minneapolis Center
Fri 12:32:53 PM 41.8981 -96.2147 268° West 252 290 30,000  Level Minneapolis Center
Fri 12:33:55 PM 41.8964 -96.3078 269° West 251 289 30,000  Level Minneapolis Center
Fri 12:34:57 PM 41.8931 -96.4006 267° West 251 289 30,000  Level Minneapolis Center
Fri 12:35:59 PM 41.8906 -96.4925 268° West 249 287 30,000  Level Minneapolis Center
Fri 12:37:01 PM 41.8881 -96.6003 268° West 244 281 30,000  Level Minneapolis Center
Fri 12:38:03 PM 41.8853 -96.6900 268° West 242 278 30,000  Level Minneapolis Center
Fri 12:39:05 PM 41.8819 -96.7756 267° West 234 269 30,000  Level Minneapolis Center
Fri 12:40:07 PM 41.8789 -96.8628 267° West 235 270 30,000  Level Minneapolis Center
Fri 12:41:09 PM 41.8761 -96.9494 268° West 235 270 30,000  Level Minneapolis Center
Fri 12:42:12 PM 41.8736 -97.0375 268° West 236 272 30,000  Level Minneapolis Center
Fri 12:43:14 PM 41.8703 -97.1431 268° West 237 273 30,000  Level Minneapolis Center
Fri 12:44:16 PM 41.8669 -97.2317 267° West 238 274 30,000  Level Minneapolis Center
Fri 12:46:00 PM 41.8611 -97.3780 267° West  Level FlightAware Approximate
Fri 12:51:46 PM 41.8406 -97.9117 266° West 245 282 30,000  Level Denver Center
Fri 12:53:00 PM 41.8358 -97.9688 267° West  Level FlightAware Approximate
Fri 12:53:00 PM 41.8362 -98.0157 267° West  Level Estimated
Fri 12:54:00 PM 41.8319 -98.0532 267° West  Level FlightAware Approximate
Fri 12:55:00 PM 41.8280 -98.1376 266° West  Level FlightAware Approximate
Fri 12:56:00 PM 41.8240 -98.2219 266° West  Level FlightAware Approximate
Fri 12:57:00 PM 41.8200 -98.3062 266° West  Level FlightAware Approximate
Fri 01:00:00 PM 41.8096 -98.6062 267° West  Level Estimated
Fri 01:01:00 PM 41.8056 -98.6905 266° West  Level Estimated
Fri 01:02:00 PM 41.8015 -98.7748 266° West  Level Estimated
Fri 01:03:00 PM 41.7973 -98.8591 266° West  Level Estimated
Fri 01:04:00 PM 41.7931 -98.9434 266° West  Level Estimated
Fri 01:05:00 PM 41.7888 -99.0277 266° West  Level Estimated
Fri 01:06:00 PM 41.7844 -99.1119 266° West  Level Estimated
Fri 01:07:00 PM 41.7800 -99.1962 266° West  Level Estimated
Fri 01:08:00 PM 41.7755 -99.2804 266° West  Level Estimated
Fri 01:09:00 PM 41.7710 -99.3646 266° West  Level Estimated
Fri 01:10:00 PM 41.7664 -99.4489 266° West  Level Estimated
Fri 01:10:23 PM 41.7589 -99.5819 266° West 247 284 30,000  Level Denver Center
Fri 01:11:00 PM 41.7617 -99.5331 266° West  Level Estimated
Fri 01:11:25 PM 41.7531 -99.6719 265° West 245 282 30,000  Level Denver Center
Fri 01:12:00 PM 41.7570 -99.6172 266° West  Level Estimated
Fri 01:12:27 PM 41.7472 -99.7711 266° West 248 285 30,000  Level Denver Center
Fri 01:13:00 PM 41.7522 -99.7014 266° West  Level Estimated
Fri 01:14:00 PM 41.7474 -99.7856 266° West  Level Estimated
Fri 01:14:00 PM 41.7359 -99.9010 263° West  Level FlightAware Approximate
Fri 01:15:00 PM 41.7425 -99.8697 266° West  Level Estimated
Fri 01:20:44 PM 41.7025 -100.5258 265° West 244 281 30,000  Level Denver Center
Fri 01:21:00 PM 41.6949 -100.4892 266° West  Level FlightAware Approximate
Fri 01:21:46 PM 41.6953 -100.6278 265° West 246 283 30,000  Level Denver Center
Fri 01:22:00 PM 41.6898 -100.5733 265° West  Level FlightAware Approximate
Fri 01:22:48 PM 41.6900 -100.7158 265° West 248 285 30,000  Level Denver Center
Fri 01:23:00 PM 41.6847 -100.6573 265° West  Level FlightAware Approximate
Fri 01:23:50 PM 41.6836 -100.8147 265° West 243 280 30,000  Level Denver Center
Fri 01:24:00 PM 41.6795 -100.7414 265° West  Level FlightAware Approximate
Fri 01:24:52 PM 41.6775 -100.9042 265° West 249 287 30,000  Level Denver Center
Fri 01:25:00 PM 41.6742 -100.8254 265° West  Level FlightAware Approximate
Fri 01:25:55 PM 41.6717 -100.9908 265° West 246 283 30,000  Level Denver Center
Fri 01:26:57 PM 41.6647 -101.0925 265° West 249 287 30,000  Level Denver Center
Fri 01:27:59 PM 41.6586 -101.1794 265° West 248 285 30,000  Level Denver Center
Fri 01:29:01 PM 41.6514 -101.2831 265° West 250 288 30,000  Level Denver Center
Fri 01:30:03 PM 41.6450 -101.3711 264° West 250 288 30,000  Level Denver Center
Fri 01:31:05 PM 41.6372 -101.4736 264° West 250 288 30,000  Level Denver Center
Fri 01:32:07 PM 41.6308 -101.5611 264° West 249 287 30,000  Level Denver Center
Fri 01:33:09 PM 41.6225 -101.6644 264° West 252 290 30,000  Level Denver Center
Fri 01:34:11 PM 41.6161 -101.7522 264° West 250 288 30,000  Level Denver Center
Fri 01:35:13 PM 41.6078 -101.8536 264° West 247 284 30,000  Level Denver Center
Fri 01:36:15 PM 41.6025 -101.9400 265° West 246 283 30,000  Level Denver Center
Fri 01:37:17 PM 41.5939 -102.0419 264° West 248 285 30,000  Level Denver Center
Fri 01:38:19 PM 41.5881 -102.1303 265° West 249 287 30,000  Level Denver Center
Fri 01:39:22 PM 41.5792 -102.2325 263° West 250 288 30,000  Level Denver Center
Fri 01:40:24 PM 41.5722 -102.3181 264° West 245 282 30,000  Level Denver Center
Fri 01:41:26 PM 41.5639 -102.4208 264° West 248 285 30,000  Level Denver Center
Fri 01:42:28 PM 41.5564 -102.5094 264° West 252 290 30,000  Level Denver Center
Fri 01:43:30 PM 41.5481 -102.6114 264° West 250 288 30,000  Level Denver Center
Fri 01:44:32 PM 41.5397 -102.7047 263° West 251 289 30,000  Level Denver Center
Fri 01:45:34 PM 41.5331 -102.7931 264° West 250 288 30,000  Level Denver Center
Fri 01:46:36 PM 41.5247 -102.8958 264° West 249 287 30,000  Level Denver Center
Fri 01:47:38 PM 41.5164 -102.9842 263° West 250 288 30,000  Level Denver Center
Fri 01:48:40 PM 41.5069 -103.0889 263° West 255 293 30,000  Level Denver Center
Fri 01:49:42 PM 41.4994 -103.1761 263° West 249 287 30,000  Level Denver Center
Fri 01:50:44 PM 41.4900 -103.2789 263° West 249 287 30,000  Level Denver Center
Fri 01:51:47 PM 41.4822 -103.3678 263° West 251 289 30,000  Level Denver Center
Fri 01:52:49 PM 41.4750 -103.4575 264° West 255 293 30,000  Level Denver Center
Fri 01:53:51 PM 41.4658 -103.5597 263° West 250 288 30,000  Level Denver Center
Fri 01:54:53 PM 41.4572 -103.6494 263° West 253 291 30,000  Level Denver Center
Fri 01:55:55 PM 41.4469 -103.7547 263° West 257 296 30,000  Level Denver Center
Fri 01:56:57 PM 41.4392 -103.8442 263° West 255 293 30,000  Level Denver Center
Fri 01:57:59 PM 41.4292 -103.9472 263° West 251 289 30,000  Level Denver Center
Fri 01:59:01 PM 41.4208 -104.0353 263° West 251 289 30,000  Level Denver Center
Fri 02:00:03 PM 41.4111 -104.1394 263° West 253 291 30,000  Level Denver Center
Fri 02:01:05 PM 41.4025 -104.2289 263° West 253 291 30,000  Level Denver Center
Fri 02:02:07 PM 41.3917 -104.3311 262° West 250 288 30,000  Level Denver Center
Fri 02:03:09 PM 41.3831 -104.4175 262° West 247 284 30,000  Level Denver Center
Fri 02:04:11 PM 41.3739 -104.5206 263° West 251 289 30,000  Level Denver Center
Fri 02:05:13 PM 41.3650 -104.6094 262° West 253 291 30,000  Level Denver Center
Fri 02:06:15 PM 41.3550 -104.7133 263° West 254 292 30,000  Level Denver Center
Fri 02:07:18 PM 41.3456 -104.8019 262° West 253 291 30,000  Level Denver Center
Fri 02:08:20 PM 41.3367 -104.8875 262° West 246 283 30,000  Level Denver Center
Fri 02:09:22 PM 41.3258 -104.9897 262° West 249 287 30,000  Level Denver Center
Fri 02:10:24 PM 41.3169 -105.0756 262° West 246 283 30,000  Level Denver Center
Fri 02:11:26 PM 41.3072 -105.1753 263° West 245 282 30,000  Level Denver Center
Fri 02:12:28 PM 41.2978 -105.2628 262° West 249 287 30,000  Level Denver Center
Fri 02:13:30 PM 41.2864 -105.3642 262° West 249 287 30,000  Level Denver Center
Fri 02:14:32 PM 41.2775 -105.4517 262° West 249 287 30,000  Level Denver Center
Fri 02:15:34 PM 41.2664 -105.5519 262° West 247 284 30,000  Level Denver Center
Fri 02:16:36 PM 41.2564 -105.6397 261° West 249 287 30,000  Level Denver Center
Fri 02:17:38 PM 41.2461 -105.7419 262° West 250 288 30,000  Level Denver Center
Fri 02:18:40 PM 41.2364 -105.8267 261° West 245 282 30,000  Level Denver Center
Fri 02:19:42 PM 41.2256 -105.9264 262° West 243 280 30,000 -97 Level Denver Center
Fri 02:20:44 PM 41.2161 -106.0133 262° West 247 284 29,800 -576 Descending Denver Center
Fri 02:21:47 PM 41.2064 -106.0992 261° West 246 283 28,800 -1,056 Descending Denver Center
Fri 02:22:49 PM 41.1939 -106.2072 261° West 251 289 27,600 -871 Descending Denver Center
Fri 02:23:51 PM 41.1842 -106.2958 262° West 255 293 27,000 -290 Descending Denver Center
Fri 02:24:53 PM 41.1736 -106.3811 261° West 247 284 27,000  Level Denver Center
Fri 02:25:55 PM 41.1628 -106.4775 262° West 238 274 27,000 -629 Level Denver Center
Fri 02:26:57 PM 41.1553 -106.5594 263° West 234 269 25,700 -1,742 Descending Denver Center
Fri 02:27:59 PM 41.1433 -106.6633 261° West 255 293 23,400 -2,032 Descending Denver Center
Fri 02:29:01 PM 41.1344 -106.7550 263° West 261 300 21,500 -1,984 Descending Denver Center
Fri 02:30:03 PM 41.1161 -106.8569 257° West 254 292 19,300 -1,887 Descending Denver Center
Fri 02:31:05 PM 41.0956 -106.9417 252° West 253 291 17,600 -1,935 Descending Denver Center
Fri 02:32:07 PM 41.0739 -107.0372 253° West 244 281 15,300 -2,226 Descending Denver Center
Fri 02:34:00 PM 41.0573 -107.1967 261° West  Level FlightAware Approximate
Fri 02:41:00 PM 41.0333 -107.4833 270° West  Level FlightAware Approximate
Fri 02:42:00 PM 41.0374 -107.4925 270° West  Level Estimated
Fri 02:43:00 PM 41.0374 -107.4925 270° West  Level Estimated
Fri 02:44:00 PM 41.0374 -107.4925 270° West  Level Estimated
Fri 02:45:00 PM 41.0374 -107.4925 270° West  Level Estimated
Fri 02:46:00 PM 41.0374 -107.4925 270° West  Level Estimated
Fri 02:47:00 PM 41.0374 -107.4925 270° West  Level Estimated
Fri 02:48:00 PM 41.0374 -107.4925 270° West  Level Estimated
Fri 02:49:00 PM 41.0374 -107.4925 270° West  Level Estimated
Fri 02:50:00 PM 41.0374 -107.4925 270° West  Level Estimated
Fri 02:51:00 PM 41.0374 -107.4925 270° West  Level Estimated

Login

Don't have an account? Register now (free) for customized features, flight alerts, and more!